Time;durP1;ratioP1;P1;durP2;ratioP2;P2;SDS_P1;SDS_P2;PMS_P1;PMS_P2;Temp;Humidity;BMP_temperature;BMP_pressure;BME280_temperature;BME280_humidity;BME280_pressure;Samples;Min_cycle;Max_cycle;Signal;HPM_P1;HPM_P2
2021/05/01 00:01:15;;;;;;;38.53;21.80;;;8.70;99.90;;;;;;5043558;28;20466;-67
2021/05/01 00:03:42;;;;;;;36.92;21.80;;;8.70;99.90;;;;;;5041793;28;20497;-67
2021/05/01 00:06:08;;;;;;;;;;;8.60;99.90;;;;;;5043844;28;20140;-67
2021/05/01 00:08:35;;;;;;;35.58;20.45;;;8.70;99.90;;;;;;5043206;28;20388;-67
2021/05/01 00:11:03;;;;;;;34.17;20.73;;;8.90;99.90;;;;;;5044498;28;20135;-67
2021/05/01 00:13:30;;;;;;;37.45;21.17;;;8.80;99.90;;;;;;5044903;28;20052;-67
2021/05/01 00:15:58;;;;;;;36.65;21.77;;;8.70;99.90;;;;;;5047299;28;20131;-67
2021/05/01 00:18:24;;;;;;;39.45;21.67;;;8.70;99.90;;;;;;5042727;28;20091;-67
2021/05/01 00:20:51;;;;;;;;;;;8.60;99.90;;;;;;5045692;28;21125;-67
2021/05/01 00:23:17;;;;;;;37.73;21.53;;;8.60;99.90;;;;;;5044064;28;20035;-67
2021/05/01 00:25:43;;;;;;;;;;;8.70;99.90;;;;;;5044298;28;20472;-67
2021/05/01 00:28:11;;;;;;;42.35;22.15;;;8.60;99.90;;;;;;5044833;28;20348;-67
2021/05/01 00:30:38;;;;;;;40.80;23.52;;;8.60;99.90;;;;;;5042440;28;20052;-67
2021/05/01 00:33:05;;;;;;;38.88;22.50;;;8.60;99.90;;;;;;5046231;28;20049;-67
2021/05/01 00:35:32;;;;;;;40.80;23.73;;;8.60;99.90;;;;;;5044779;28;20048;-67
2021/05/01 00:37:59;;;;;;;40.95;22.55;;;8.70;99.90;;;;;;5044542;28;20413;-67
2021/05/01 00:40:25;;;;;;;41.42;23.92;;;8.70;99.90;;;;;;5046090;28;20090;-67
2021/05/01 00:42:52;;;;;;;37.80;23.40;;;8.60;99.90;;;;;;5047173;28;20048;-67
2021/05/01 00:45:19;;;;;;;44.78;25.27;;;8.70;99.90;;;;;;5044979;28;20057;-67
2021/05/01 00:47:45;;;;;;;44.55;24.23;;;8.70;99.90;;;;;;5041237;28;20044;-67
2021/05/01 00:50:14;;;;;;;44.92;25.17;;;8.70;99.90;;;;;;5043488;28;20095;-67
2021/05/01 00:52:40;;;;;;;42.47;24.63;;;8.70;99.90;;;;;;5044593;28;20102;-67
2021/05/01 00:55:09;;;;;;;40.22;23.23;;;8.80;99.90;;;;;;5044017;28;20151;-67
2021/05/01 00:57:37;;;;;;;43.30;24.08;;;8.60;99.90;;;;;;5043592;28;20080;-67
2021/05/01 01:00:10;;;;;;;43.85;25.27;;;8.60;99.90;;;;;;5040680;28;20055;-68
2021/05/01 01:02:36;;;;;;;44.22;24.63;;;8.50;99.90;;;;;;5045695;28;20060;-67
2021/05/01 01:05:04;;;;;;;42.88;24.98;;;8.60;99.90;;;;;;5045822;28;20123;-67
2021/05/01 01:07:31;;;;;;;43.08;24.75;;;8.60;99.90;;;;;;5043336;28;20194;-67
2021/05/01 01:09:58;;;;;;;48.17;24.73;;;8.50;99.90;;;;;;5042745;28;20083;-67
2021/05/01 01:12:24;;;;;;;;;;;8.40;99.90;;;;;;5043404;28;20171;-68
2021/05/01 01:14:50;;;;;;;43.55;24.15;;;8.40;99.90;;;;;;5044677;28;20009;-68
2021/05/01 01:17:16;;;;;;;;;;;8.40;99.90;;;;;;5050442;28;20063;-68
2021/05/01 01:19:43;;;;;;;43.40;23.60;;;8.30;99.90;;;;;;5044655;28;19924;-67
2021/05/01 01:22:14;;;;;;;;;;;8.40;99.90;;;;;;5045981;28;20073;-68
2021/05/01 01:24:40;;;;;;;47.33;25.20;;;8.40;99.90;;;;;;5038476;28;19931;-68
2021/05/01 01:27:08;;;;;;;53.40;27.40;;;8.40;99.90;;;;;;5038579;28;20103;-68
2021/05/01 01:29:37;;;;;;;51.33;26.98;;;8.30;99.90;;;;;;5033907;28;20804;-67
2021/05/01 01:32:05;;;;;;;43.95;24.27;;;8.40;99.90;;;;;;5041895;28;20437;-68
2021/05/01 01:34:32;;;;;;;48.85;26.80;;;8.40;99.90;;;;;;5045824;28;20048;-67
2021/05/01 01:36:59;;;;;;;43.88;24.77;;;8.50;99.90;;;;;;5042304;28;20074;-68
2021/05/01 01:39:26;;;;;;;47.88;25.42;;;8.60;99.90;;;;;;5042540;28;20052;-67
2021/05/01 01:41:53;;;;;;;47.67;24.63;;;8.60;99.90;;;;;;5044535;28;20490;-67
2021/05/01 01:44:19;;;;;;;44.17;25.02;;;8.50;99.90;;;;;;5043760;28;20090;-68
2021/05/01 01:46:46;;;;;;;46.03;25.63;;;8.60;99.90;;;;;;5045700;28;20070;-67
2021/05/01 01:49:12;;;;;;;47.58;26.48;;;8.50;99.90;;;;;;5042187;28;20059;-68
2021/05/01 01:51:39;;;;;;;45.75;26.13;;;8.50;99.90;;;;;;5044423;28;20056;-67
2021/05/01 01:54:06;;;;;;;43.38;25.48;;;8.60;99.90;;;;;;5045489;28;20417;-67
2021/05/01 01:56:37;;;;;;;44.63;24.75;;;8.60;99.90;;;;;;5044537;28;20131;-68
2021/05/01 01:59:04;;;;;;;44.15;24.88;;;8.50;99.90;;;;;;5040093;28;20052;-68
2021/05/01 02:01:31;;;;;;;48.53;27.20;;;8.50;99.90;;;;;;5045652;28;20083;-68
2021/05/01 02:03:57;;;;;;;45.92;25.50;;;8.50;99.90;;;;;;5042911;28;20087;-67
2021/05/01 02:06:24;;;;;;;46.17;26.60;;;8.50;99.90;;;;;;5041870;28;20089;-67
2021/05/01 02:08:50;;;;;;;;;;;8.50;99.90;;;;;;5041471;28;20063;-67
2021/05/01 02:11:17;;;;;;;47.47;25.83;;;8.40;99.90;;;;;;5041431;28;19936;-68
2021/05/01 02:13:44;;;;;;;48.55;26.52;;;8.30;99.90;;;;;;5038728;28;20505;-67
2021/05/01 02:16:11;;;;;;;52.33;29.20;;;8.20;99.90;;;;;;5038091;28;20528;-68
2021/05/01 02:18:37;;;;;;;49.53;27.80;;;8.20;99.90;;;;;;5038841;28;20087;-68
2021/05/01 02:21:04;;;;;;;;;;;8.30;99.90;;;;;;5044583;28;20079;-68
2021/05/01 02:23:30;;;;;;;54.17;27.60;;;8.40;99.90;;;;;;5045569;28;19974;-68
2021/05/01 02:25:57;;;;;;;53.90;28.83;;;8.30;99.90;;;;;;5040840;28;20161;-68
2021/05/01 02:28:23;;;;;;;56.78;29.33;;;8.20;99.90;;;;;;5037220;28;20052;-67
2021/05/01 02:30:51;;;;;;;56.45;28.58;;;8.10;99.90;;;;;;5040122;28;20074;-67
2021/05/01 02:33:17;;;;;;;57.10;30.88;;;8.00;99.90;;;;;;5042853;28;20088;-68
2021/05/01 02:35:44;;;;;;;65.15;32.85;;;7.80;99.90;;;;;;5038603;28;20059;-68
2021/05/01 02:38:10;;;;;;;65.20;34.28;;;7.90;99.90;;;;;;5038719;28;20130;-68
2021/05/01 02:40:37;;;;;;;62.40;32.38;;;8.00;99.90;;;;;;5042727;28;20473;-67
2021/05/01 02:43:05;;;;;;;59.22;31.67;;;8.00;99.90;;;;;;5040464;28;20518;-68
2021/05/01 02:45:32;;;;;;;59.25;32.50;;;8.10;99.90;;;;;;5040486;28;20501;-68
2021/05/01 02:47:59;;;;;;;62.20;31.15;;;8.10;99.90;;;;;;5041453;28;21682;-68
2021/05/01 02:50:26;;;;;;;62.22;31.88;;;8.10;99.90;;;;;;5040559;28;20054;-68
2021/05/01 02:52:52;;;;;;;62.30;32.25;;;8.20;99.90;;;;;;5041087;28;20059;-67
2021/05/01 02:55:19;;;;;;;62.28;32.30;;;8.10;99.90;;;;;;5041113;28;20091;-67
2021/05/01 02:57:45;;;;;;;;;;;8.10;99.90;;;;;;5042759;28;20095;-67
2021/05/01 03:00:14;;;;;;;60.10;31.42;;;8.00;99.90;;;;;;5040929;28;19924;-68
2021/05/01 03:02:41;;;;;;;57.17;31.63;;;8.00;99.90;;;;;;5042376;28;20048;-68
2021/05/01 03:05:10;;;;;;;60.47;31.08;;;8.10;99.90;;;;;;5044983;28;20165;-68
2021/05/01 03:07:37;;;;;;;60.33;31.15;;;8.00;99.90;;;;;;5040773;28;20487;-68
2021/05/01 03:10:05;;;;;;;62.42;29.58;;;7.90;99.90;;;;;;5041128;28;20954;-68
2021/05/01 03:12:31;;;;;;;58.95;31.08;;;7.90;99.90;;;;;;5041979;28;20476;-67
2021/05/01 03:14:58;;;;;;;56.83;28.73;;;8.00;99.90;;;;;;5044463;28;20143;-68
2021/05/01 03:17:24;;;;;;;54.17;28.85;;;8.00;99.90;;;;;;5041703;28;20060;-67
2021/05/01 03:19:51;;;;;;;;;;;8.00;99.90;;;;;;5038484;28;20107;-68
2021/05/01 03:22:18;;;;;;;56.92;29.05;;;7.90;99.90;;;;;;5045117;28;19925;-67
2021/05/01 03:24:44;;;;;;;59.92;30.80;;;7.70;99.90;;;;;;5043640;28;20174;-67
2021/05/01 03:27:11;;;;;;;;;;;7.80;99.90;;;;;;5041444;28;20471;-68
2021/05/01 03:29:37;;;;;;;55.05;28.40;;;7.70;99.90;;;;;;5041239;28;20384;-68
2021/05/01 03:32:04;;;;;;;63.13;28.67;;;7.60;99.90;;;;;;5044253;28;20394;-68
2021/05/01 03:34:31;;;;;;;53.50;27.45;;;7.60;99.90;;;;;;5046915;28;20092;-68
2021/05/01 03:36:57;;;;;;;;;;;7.60;99.90;;;;;;5044324;28;20056;-68
2021/05/01 03:39:25;;;;;;;50.92;26.50;;;7.60;99.90;;;;;;5045881;28;19982;-68
2021/05/01 03:41:51;;;;;;;53.45;27.85;;;7.60;99.90;;;;;;5048140;28;20047;-67
2021/05/01 03:44:18;;;;;;;50.90;26.73;;;7.60;99.90;;;;;;5046378;28;20052;-68
2021/05/01 03:46:44;;;;;;;53.35;26.75;;;7.60;99.90;;;;;;5048633;28;20056;-67
2021/05/01 03:49:11;;;;;;;;;;;7.60;99.90;;;;;;5045651;28;20833;-67
2021/05/01 03:51:37;;;;;;;50.38;26.02;;;7.70;99.90;;;;;;5046593;28;20395;-68
2021/05/01 03:54:04;;;;;;;50.72;28.20;;;7.70;99.90;;;;;;5046675;28;20071;-68
2021/05/01 03:56:33;;;;;;;51.83;27.10;;;7.70;99.90;;;;;;5044080;28;20059;-68
2021/05/01 03:59:00;;;;;;;60.67;29.38;;;7.70;99.90;;;;;;5042819;28;20048;-68
2021/05/01 04:01:26;;;;;;;59.40;29.85;;;7.70;99.90;;;;;;5043657;28;20694;-68
2021/05/01 04:03:53;;;;;;;61.28;28.55;;;7.70;99.90;;;;;;5044948;28;20051;-68
2021/05/01 04:06:19;;;;;;;;;;;7.80;99.90;;;;;;5044959;28;20080;-68
2021/05/01 04:08:45;;;;;;;57.92;29.35;;;7.70;99.90;;;;;;5042739;28;20058;-67
2021/05/01 04:11:12;;;;;;;;;;;7.70;99.90;;;;;;5043007;28;20052;-68
2021/05/01 04:13:46;;;;;;;57.25;28.38;;;7.60;99.90;;;;;;5045280;28;19971;-67
2021/05/01 04:16:13;;;;;;;59.05;29.85;;;7.70;99.90;;;;;;5043609;28;20066;-68
2021/05/01 04:18:39;;;;;;;58.17;29.83;;;7.60;99.90;;;;;;5046197;28;20048;-68
2021/05/01 04:21:05;;;;;;;;;;;7.60;99.90;;;;;;5044449;28;20060;-68
2021/05/01 04:23:32;;;;;;;62.00;29.48;;;7.60;99.90;;;;;;5048256;28;19969;-68
2021/05/01 04:25:59;;;;;;;65.77;30.33;;;7.60;99.90;;;;;;5043839;28;20519;-68
2021/05/01 04:28:25;;;;;;;57.70;28.63;;;7.50;99.90;;;;;;5042662;28;20044;-68
2021/05/01 04:30:53;;;;;;;64.77;32.00;;;7.50;99.90;;;;;;5042273;28;20052;-68
2021/05/01 04:33:19;;;;;;;66.30;30.98;;;7.50;99.90;;;;;;5044375;28;20143;-67
2021/05/01 04:35:45;;;;;;;;;;;7.40;99.90;;;;;;5045730;28;20127;-68
2021/05/01 04:38:12;;;;;;;65.68;32.88;;;7.40;99.90;;;;;;5045996;28;19920;-67
2021/05/01 04:40:38;;;;;;;73.88;33.72;;;7.40;99.90;;;;;;5041814;28;20098;-68
2021/05/01 04:43:06;;;;;;;69.70;32.00;;;7.50;99.90;;;;;;5040349;28;20059;-67
2021/05/01 04:45:33;;;;;;;70.80;33.88;;;7.40;99.90;;;;;;5047543;28;20064;-67
2021/05/01 04:48:00;;;;;;;76.88;35.08;;;7.30;99.90;;;;;;5042739;28;20056;-67
2021/05/01 04:50:27;;;;;;;78.35;36.50;;;7.30;99.90;;;;;;5046869;28;20061;-67
2021/05/01 04:52:53;;;;;;;71.65;31.70;;;7.40;99.90;;;;;;5041280;28;20607;-67
2021/05/01 04:55:20;;;;;;;;;;;7.50;99.90;;;;;;5044852;28;20205;-67
2021/05/01 04:57:48;;;;;;;75.60;32.03;;;7.30;99.90;;;;;;5040199;28;20427;-67
2021/05/01 05:00:17;;;;;;;71.70;34.05;;;7.30;99.90;;;;;;5041632;28;20055;-67
2021/05/01 05:02:44;;;;;;;77.97;34.30;;;7.30;99.90;;;;;;5042521;28;20520;-67
2021/05/01 05:05:13;;;;;;;77.22;35.45;;;7.30;99.90;;;;;;5044974;28;20083;-67
2021/05/01 05:07:40;;;;;;;73.25;33.95;;;7.30;99.90;;;;;;5041948;28;20091;-67
2021/05/01 05:10:08;;;;;;;78.83;33.37;;;7.30;99.90;;;;;;5044782;28;20871;-67
2021/05/01 05:12:34;;;;;;;76.88;32.97;;;7.30;99.90;;;;;;5045594;28;20057;-67
2021/05/01 05:15:01;;;;;;;69.47;31.77;;;7.30;99.90;;;;;;5045157;28;20089;-67
2021/05/01 05:17:27;;;;;;;72.88;32.10;;;7.50;99.90;;;;;;5042357;28;20492;-67
2021/05/01 05:19:53;;;;;;;;;;;7.60;99.90;;;;;;5043410;28;20044;-68
2021/05/01 05:22:21;;;;;;;60.40;30.60;;;7.70;99.90;;;;;;5051542;28;19976;-67
2021/05/01 05:24:47;;;;;;;60.42;31.13;;;7.90;99.90;;;;;;5052365;28;20063;-67
2021/05/01 05:27:14;;;;;;;62.17;31.92;;;8.10;99.90;;;;;;5045047;28;20048;-67
2021/05/01 05:29:43;;;;;;;64.53;31.80;;;8.10;99.90;;;;;;5045205;28;20059;-68
2021/05/01 05:32:10;;;;;;;54.83;28.25;;;8.20;99.90;;;;;;5041984;28;20055;-67
2021/05/01 05:34:37;;;;;;;50.45;27.63;;;8.30;99.90;;;;;;5045903;28;20056;-67
2021/05/01 05:37:03;;;;;;;50.00;28.80;;;8.40;99.90;;;;;;5039512;28;20048;-67
2021/05/01 05:39:30;;;;;;;48.97;27.65;;;8.50;99.90;;;;;;5043906;28;20067;-67
2021/05/01 05:41:57;;;;;;;47.53;26.27;;;8.70;99.90;;;;;;5041467;28;20405;-68
2021/05/01 05:44:24;;;;;;;53.10;29.17;;;8.70;99.90;;;;;;5042915;28;20669;-67
2021/05/01 05:46:50;;;;;;;51.15;29.42;;;8.80;99.90;;;;;;5044533;28;20048;-67
2021/05/01 05:49:17;;;;;;;50.95;28.85;;;8.90;99.90;;;;;;5046199;28;20322;-67
2021/05/01 05:51:43;;;;;;;45.70;27.55;;;8.90;99.90;;;;;;5043670;28;20116;-68
2021/05/01 05:54:10;;;;;;;48.05;28.23;;;9.00;99.90;;;;;;5042825;28;20528;-67
2021/05/01 05:56:37;;;;;;;52.30;29.40;;;9.00;99.90;;;;;;5042358;28;20717;-68
2021/05/01 05:59:04;;;;;;;52.53;29.20;;;8.90;99.90;;;;;;5041107;28;20117;-68
2021/05/01 06:01:35;;;;;;;50.67;29.48;;;9.00;99.90;;;;;;5042878;28;20051;-67
2021/05/01 06:04:04;;;;;;;49.00;28.40;;;9.10;99.90;;;;;;5045029;28;20777;-68
2021/05/01 06:06:34;;;;;;;48.05;28.48;;;9.30;99.90;;;;;;5048213;28;20111;-67
2021/05/01 06:09:02;;;;;;;48.17;28.65;;;9.20;99.90;;;;;;5049685;28;20045;-68
2021/05/01 06:11:29;;;;;;;48.72;28.67;;;9.40;99.90;;;;;;5050459;28;20595;-67
2021/05/01 06:14:02;;;;;;;45.83;28.35;;;9.50;99.90;;;;;;5050566;28;20059;-68
2021/05/01 06:16:30;;;;;;;51.15;27.38;;;9.60;99.90;;;;;;5052918;28;20097;-68
2021/05/01 06:18:57;;;;;;;46.45;26.67;;;9.80;99.90;;;;;;5048584;28;20141;-68
2021/05/01 06:21:23;;;;;;;47.65;27.45;;;9.80;99.90;;;;;;5051956;28;20051;-67
2021/05/01 06:23:50;;;;;;;46.55;27.15;;;9.90;99.90;;;;;;5052685;28;20101;-68
2021/05/01 06:26:17;;;;;;;43.45;26.52;;;10.20;99.90;;;;;;5050369;28;20149;-68
2021/05/01 06:28:44;;;;;;;44.92;27.75;;;10.30;99.90;;;;;;5048405;28;20147;-68
2021/05/01 06:31:12;;;;;;;46.28;26.95;;;10.40;99.90;;;;;;5049911;28;20094;-68
2021/05/01 06:33:40;;;;;;;42.33;26.45;;;10.50;99.90;;;;;;5051039;28;20106;-68
2021/05/01 06:36:09;;;;;;;41.97;26.92;;;10.50;99.90;;;;;;5050417;28;20052;-68
2021/05/01 06:38:35;;;;;;;44.10;27.20;;;10.70;99.90;;;;;;5054689;28;20568;-68
2021/05/01 06:41:07;;;;;;;43.80;26.92;;;10.80;99.90;;;;;;5056107;28;20118;-68
2021/05/01 06:43:47;;;;;;;41.13;25.80;;;10.90;99.90;;;;;;5056740;28;20052;-68
2021/05/01 06:46:19;;;;;;;39.92;25.80;;;11.00;99.90;;;;;;5055009;28;20084;-68
2021/05/01 06:48:50;;;;;;;43.25;26.88;;;11.20;99.90;;;;;;5053915;28;20088;-68
2021/05/01 06:51:18;;;;;;;39.03;24.92;;;11.20;99.90;;;;;;5042962;28;20044;-70
2021/05/01 06:53:45;;;;;;;39.63;26.33;;;11.50;99.90;;;;;;5049544;28;20122;-72
2021/05/01 06:56:13;;;;;;;43.20;26.80;;;11.70;99.90;;;;;;5051669;28;20063;-70
2021/05/01 06:58:41;;;;;;;42.95;25.70;;;11.80;99.90;;;;;;5052039;28;20056;-70
2021/05/01 07:01:11;;;;;;;40.65;25.20;;;12.10;99.90;;;;;;5049641;28;20527;-70
2021/05/01 07:03:44;;;;;;;40.17;24.55;;;12.10;99.90;;;;;;5051054;28;20060;-70
2021/05/01 07:06:11;;;;;;;39.50;26.35;;;12.20;99.90;;;;;;5041295;28;20091;-71
2021/05/01 07:08:39;;;;;;;37.60;25.83;;;12.20;99.90;;;;;;5038756;28;20075;-73
2021/05/01 07:11:07;;;;;;;37.40;24.00;;;12.50;99.90;;;;;;5042838;28;20055;-70
2021/05/01 07:13:34;;;;;;;38.33;25.02;;;12.50;99.90;;;;;;5044303;28;20063;-69
2021/05/01 07:16:03;;;;;;;36.65;24.35;;;12.30;99.90;;;;;;5043273;28;20058;-72
2021/05/01 07:18:30;;;;;;;40.42;26.70;;;12.60;99.90;;;;;;5042345;28;20109;-70
2021/05/01 07:20:58;;;;;;;35.35;23.60;;;12.60;99.90;;;;;;5044237;28;20766;-66
2021/05/01 07:23:25;;;;;;;37.70;24.73;;;12.60;99.90;;;;;;5041510;28;20131;-66
2021/05/01 07:25:51;;;;;;;38.42;25.88;;;12.90;99.90;;;;;;5044283;28;20054;-65
2021/05/01 07:28:22;;;;;;;37.67;25.75;;;13.10;99.90;;;;;;5041874;28;20135;-68
2021/05/01 07:30:52;;;;;;;41.83;27.45;;;13.30;99.90;;;;;;5043690;28;20095;-67
2021/05/01 07:33:25;;;;;;;41.67;25.05;;;13.10;99.90;;;;;;5040463;28;20048;-64
2021/05/01 07:35:54;;;;;;;36.30;24.60;;;13.20;99.90;;;;;;5038312;28;20062;-66
2021/05/01 07:38:24;;;;;;;39.15;25.40;;;13.10;99.90;;;;;;5040906;28;20052;-67
2021/05/01 07:40:52;;;;;;;42.03;25.88;;;13.30;99.90;;;;;;5040580;28;20063;-65
2021/05/01 07:43:20;;;;;;;42.22;26.42;;;13.20;99.90;;;;;;5044315;28;20045;-65
2021/05/01 07:45:47;;;;;;;40.22;27.38;;;13.20;99.90;;;;;;5044300;28;20432;-65
2021/05/01 07:48:15;;;;;;;42.58;28.33;;;13.10;99.90;;;;;;5038838;28;20147;-66
2021/05/01 07:50:43;;;;;;;41.08;25.92;;;13.20;99.90;;;;;;5040865;28;20740;-66
2021/05/01 07:53:10;;;;;;;41.90;27.05;;;13.30;99.90;;;;;;5046864;28;20056;-66
2021/05/01 07:55:38;;;;;;;39.20;26.25;;;12.70;99.90;;;;;;5045151;28;20056;-65
2021/05/01 07:58:04;;;;;;;41.60;26.02;;;12.60;99.90;;;;;;5039809;28;20070;-66
2021/05/01 08:00:31;;;;;;;39.08;25.92;;;12.70;99.90;;;;;;5043814;28;20051;-67
2021/05/01 08:02:59;;;;;;;38.05;24.30;;;12.60;99.90;;;;;;5044703;28;20060;-68
2021/05/01 08:05:26;;;;;;;37.15;25.40;;;12.80;99.90;;;;;;5043586;28;20081;-67
2021/05/01 08:07:53;;;;;;;35.53;22.73;;;13.10;99.90;;;;;;5038877;28;20083;-67
2021/05/01 08:10:19;;;;;;;;;;;13.30;99.90;;;;;;5043606;28;20738;-67
2021/05/01 08:12:47;;;;;;;31.80;21.03;;;13.60;99.90;;;;;;5042318;28;19965;-68
2021/05/01 08:15:14;;;;;;;31.15;20.17;;;13.80;99.90;;;;;;5042980;28;20047;-68
2021/05/01 08:17:41;;;;;;;30.38;20.13;;;14.00;99.90;;;;;;5040138;28;20777;-68
2021/05/01 08:20:09;;;;;;;29.48;20.35;;;14.30;99.90;;;;;;5045796;28;20094;-68
2021/05/01 08:22:36;;;;;;;25.15;18.08;;;14.50;99.90;;;;;;5044797;28;20055;-68
2021/05/01 08:25:04;;;;;;;25.90;18.80;;;14.80;99.90;;;;;;5047628;28;20048;-68
2021/05/01 08:27:30;;;;;;;26.63;19.00;;;14.90;99.90;;;;;;5044327;28;20075;-68
2021/05/01 08:29:58;;;;;;;28.92;19.77;;;15.20;99.90;;;;;;5047306;28;20725;-68
2021/05/01 08:32:24;;;;;;;26.30;18.48;;;15.50;99.90;;;;;;5046375;28;20056;-68
2021/05/01 08:34:51;;;;;;;25.23;18.45;;;15.70;99.90;;;;;;5046737;28;20086;-68
2021/05/01 08:37:17;;;;;;;25.83;18.48;;;15.80;99.90;;;;;;5044359;28;20057;-68
2021/05/01 08:39:44;;;;;;;23.73;17.15;;;15.90;99.90;;;;;;5045010;28;20082;-68
2021/05/01 08:42:10;;;;;;;23.42;17.58;;;16.90;99.90;;;;;;5043858;28;20084;-68
2021/05/01 08:44:37;;;;;;;24.27;18.63;;;17.60;99.90;;;;;;5043942;28;20087;-68
2021/05/01 08:47:06;;;;;;;23.88;18.05;;;18.40;99.90;;;;;;5043600;28;20048;-68
2021/05/01 08:49:33;;;;;;;22.25;17.10;;;19.20;99.90;;;;;;5045188;28;20672;-68
2021/05/01 08:51:59;;;;;;;21.40;16.63;;;19.60;99.90;;;;;;5044310;28;20052;-68
2021/05/01 08:54:26;;;;;;;22.50;17.52;;;20.10;99.90;;;;;;5046330;28;20063;-69
2021/05/01 08:56:53;;;;;;;20.15;15.73;;;20.70;99.90;;;;;;5044435;28;20050;-68
2021/05/01 08:59:20;;;;;;;21.35;17.38;;;21.20;99.90;;;;;;5046756;28;20049;-68
2021/05/01 09:01:49;;;;;;;19.40;16.23;;;20.20;99.90;;;;;;5048704;28;20048;-68
2021/05/01 09:04:17;;;;;;;20.35;16.58;;;21.40;99.90;;;;;;5046293;28;20929;-68
2021/05/01 09:06:45;;;;;;;23.58;17.42;;;21.10;99.90;;;;;;5044935;28;20044;-69
2021/05/01 09:09:12;;;;;;;21.60;17.27;;;21.20;99.90;;;;;;5045773;28;20045;-69
2021/05/01 09:11:41;;;;;;;21.10;16.20;;;20.80;99.90;;;;;;5047786;28;20056;-69
2021/05/01 09:14:18;;;;;;;20.88;17.60;;;20.90;99.90;;;;;;5043986;28;20442;-69
2021/05/01 09:16:56;;;;;;;20.95;17.13;;;21.30;99.90;;;;;;5043786;28;20976;-69
2021/05/01 09:19:35;;;;;;;23.45;17.45;;;20.70;99.90;;;;;;5042951;28;20048;-69
2021/05/01 09:22:06;;;;;;;22.20;17.08;;;19.90;99.90;;;;;;5046262;28;20051;-68
2021/05/01 09:24:33;;;;;;;21.13;16.45;;;19.30;99.90;;;;;;5043880;28;20076;-69
2021/05/01 09:27:00;;;;;;;22.45;16.77;;;19.40;99.90;;;;;;5038573;28;20080;-69
2021/05/01 09:29:32;;;;;;;19.20;14.98;;;19.20;99.90;;;;;;5038141;28;20048;-69
2021/05/01 09:32:01;;;;;;;21.30;15.90;;;19.10;99.90;;;;;;5036208;28;20516;-69
2021/05/01 09:34:39;;;;;;;22.08;15.90;;;19.50;99.90;;;;;;5041854;28;20063;-69
2021/05/01 09:37:07;;;;;;;19.63;15.30;;;20.40;99.90;;;;;;5035430;28;20052;-69
2021/05/01 09:39:34;;;;;;;25.38;15.43;;;20.10;99.90;;;;;;5043317;28;20068;-69
2021/05/01 09:42:14;;;;;;;20.92;15.68;;;19.70;99.90;;;;;;5043287;28;20055;-68
2021/05/01 09:44:40;;;;;;;20.20;15.00;;;19.30;99.90;;;;;;5042358;28;20437;-69
2021/05/01 09:47:13;;;;;;;21.27;15.95;;;18.80;99.90;;;;;;5040156;28;20818;-68
2021/05/01 09:49:41;;;;;;;21.08;15.23;;;18.80;99.90;;;;;;5039479;28;20077;-69
2021/05/01 09:52:09;;;;;;;21.75;16.42;;;18.30;99.90;;;;;;5041314;28;20069;-70
2021/05/01 09:54:37;;;;;;;21.90;15.77;;;18.20;99.90;;;;;;5043416;28;20067;-68
2021/05/01 09:57:05;;;;;;;26.58;16.80;;;18.30;99.90;;;;;;5039075;28;20076;-68
2021/05/01 09:59:40;;;;;;;22.52;16.15;;;18.20;99.90;;;;;;5039004;28;20048;-68
2021/05/01 10:02:07;;;;;;;24.08;15.98;;;18.30;99.90;;;;;;5042438;28;20053;-68
2021/05/01 10:04:34;;;;;;;20.35;15.50;;;18.10;99.90;;;;;;5042114;28;20051;-68
2021/05/01 10:07:04;;;;;;;22.20;15.40;;;17.50;99.90;;;;;;5041303;28;20080;-68
2021/05/01 10:09:32;;;;;;;20.85;15.27;;;17.50;99.90;;;;;;5041554;28;20048;-68
2021/05/01 10:12:08;;;;;;;20.85;14.65;;;16.90;99.90;;;;;;5039997;28;20056;-68
2021/05/01 10:14:37;;;;;;;19.90;15.18;;;17.10;99.90;;;;;;5041147;28;20493;-68
2021/05/01 10:17:06;;;;;;;21.38;15.32;;;16.90;99.90;;;;;;5039514;28;20055;-68
2021/05/01 10:19:52;;;;;;;23.33;16.35;;;17.30;99.90;;;;;;5040923;28;20058;-69
2021/05/01 10:22:33;;;;;;;22.67;15.50;;;17.60;99.90;;;;;;5035531;28;20061;-68
2021/05/01 10:25:01;;;;;;;20.55;14.85;;;17.30;99.90;;;;;;5034655;28;20057;-69
2021/05/01 10:27:28;;;;;;;23.40;15.25;;;17.30;99.90;;;;;;5033940;28;20045;-68
2021/05/01 10:30:08;;;;;;;20.92;14.98;;;16.90;99.90;;;;;;5041563;28;20044;-68
2021/05/01 10:32:42;;;;;;;21.88;15.00;;;16.60;99.90;;;;;;5039577;28;20062;-68
2021/05/01 10:35:10;;;;;;;21.42;14.80;;;16.40;99.90;;;;;;5038395;28;20104;-68
2021/05/01 10:37:47;;;;;;;19.98;13.32;;;16.10;99.90;;;;;;5040577;28;20052;-68
2021/05/01 10:40:14;;;;;;;20.50;14.23;;;15.90;99.90;;;;;;5039630;28;20048;-68
2021/05/01 10:42:40;;;;;;;20.95;14.98;;;15.50;99.90;;;;;;5044667;28;20660;-68
2021/05/01 10:45:08;;;;;;;20.63;14.30;;;15.60;99.90;;;;;;5039202;28;20087;-68
2021/05/01 10:47:34;;;;;;;22.60;15.32;;;15.60;99.90;;;;;;5039742;28;20044;-68
2021/05/01 10:50:17;;;;;;;19.83;13.65;;;15.50;99.90;;;;;;5040094;28;20052;-68
2021/05/01 10:52:44;;;;;;;19.58;13.43;;;15.50;99.90;;;;;;5039961;28;20076;-69
2021/05/01 10:55:12;;;;;;;18.52;12.15;;;15.70;99.90;;;;;;5037870;28;20420;-68
2021/05/01 10:57:39;;;;;;;18.55;12.23;;;16.10;99.90;;;;;;5042925;28;20257;-68
2021/05/01 11:00:09;;;;;;;16.65;11.70;;;16.10;99.90;;;;;;5042641;28;20089;-68
2021/05/01 11:02:37;;;;;;;18.20;11.80;;;16.10;99.90;;;;;;5041006;28;20056;-69
2021/05/01 11:05:06;;;;;;;17.48;11.65;;;16.10;99.90;;;;;;5041414;28;21535;-68
2021/05/01 11:07:50;;;;;;;18.33;12.13;;;15.90;99.90;;;;;;5035845;28;20052;-68
2021/05/01 11:10:17;;;;;;;17.70;12.02;;;16.20;99.90;;;;;;5038379;28;20048;-69
2021/05/01 11:12:51;;;;;;;17.23;12.13;;;16.40;99.90;;;;;;5030821;28;20782;-68
2021/05/01 11:15:21;;;;;;;19.80;12.27;;;16.60;99.90;;;;;;5038831;28;20048;-69
2021/05/01 11:17:52;;;;;;;17.73;11.85;;;17.00;99.90;;;;;;5039814;28;20083;-68
2021/05/01 11:20:20;;;;;;;15.63;10.75;;;17.40;99.90;;;;;;5039374;28;20071;-68
2021/05/01 11:22:52;;;;;;;14.07;10.35;;;18.00;99.90;;;;;;5043776;28;20991;-68
2021/05/01 11:25:21;;;;;;;14.05;9.55;;;18.40;99.90;;;;;;5041233;28;20484;-67
2021/05/01 11:27:48;;;;;;;15.02;10.52;;;18.50;99.90;;;;;;5047029;28;20137;-67
2021/05/01 11:30:17;;;;;;;13.50;9.18;;;18.50;99.90;;;;;;5043917;28;20093;-67
2021/05/01 11:32:43;;;;;;;13.60;9.68;;;18.70;99.90;;;;;;5049749;28;20139;-67
2021/05/01 11:35:12;;;;;;;14.13;9.68;;;18.20;99.90;;;;;;5046612;28;20076;-68
2021/05/01 11:37:40;;;;;;;14.45;9.48;;;18.60;99.90;;;;;;5039071;28;20052;-67
2021/05/01 11:40:10;;;;;;;15.68;10.10;;;18.90;99.90;;;;;;5046830;28;20189;-67
2021/05/01 11:42:38;;;;;;;13.82;10.13;;;19.10;99.90;;;;;;5045657;28;20544;-67
2021/05/01 11:45:10;;;;;;;13.20;9.70;;;19.40;99.90;;;;;;5040948;28;20072;-68
2021/05/01 11:47:40;;;;;;;15.35;10.48;;;19.40;99.90;;;;;;5038160;28;20817;-67
2021/05/01 11:50:09;;;;;;;13.00;9.63;;;19.10;99.90;;;;;;5047673;28;20059;-68
2021/05/01 11:52:50;;;;;;;14.05;9.55;;;18.90;99.90;;;;;;5046260;28;20787;-67
2021/05/01 11:55:26;;;;;;;13.52;9.93;;;18.90;99.90;;;;;;5042484;28;20117;-67
2021/05/01 11:57:55;;;;;;;15.00;10.50;;;18.60;99.90;;;;;;5044817;28;20149;-67
2021/05/01 12:00:33;;;;;;;13.00;9.88;;;18.10;99.90;;;;;;5048635;28;20130;-67
2021/05/01 12:03:01;;;;;;;12.85;9.55;;;17.70;99.90;;;;;;5052178;28;20087;-68
2021/05/01 12:05:33;;;;;;;14.88;9.38;;;17.70;99.90;;;;;;5047731;28;20080;-67
2021/05/01 12:08:05;;;;;;;14.68;9.30;;;17.90;99.90;;;;;;5051291;28;20565;-68
2021/05/01 12:10:37;;;;;;;13.05;9.55;;;17.80;99.90;;;;;;5054121;28;20059;-68
2021/05/01 12:13:07;;;;;;;15.45;8.80;;;18.00;99.90;;;;;;5051042;28;20166;-67
2021/05/01 12:15:35;;;;;;;12.15;9.07;;;18.00;99.90;;;;;;5051105;28;20091;-67
2021/05/01 12:18:03;;;;;;;13.57;9.25;;;18.00;99.90;;;;;;5048873;28;20040;-67
2021/05/01 12:20:30;;;;;;;17.00;9.23;;;18.00;99.90;;;;;;5047230;28;20359;-67
2021/05/01 12:23:03;;;;;;;11.82;8.70;;;17.80;99.90;;;;;;5040926;28;20075;-68
2021/05/01 12:25:36;;;;;;;12.30;8.80;;;17.70;99.90;;;;;;5037280;28;20075;-68
2021/05/01 12:28:04;;;;;;;14.30;8.82;;;17.80;99.90;;;;;;5036026;28;20604;-67
2021/05/01 12:31:04;;;;;;;12.95;8.55;;;17.70;99.90;;;;;;5040414;28;20056;-68
2021/05/01 12:33:54;;;;;;;13.98;9.73;;;17.50;99.90;;;;;;5046601;28;20121;-67
2021/05/01 12:36:26;;;;;;;13.88;9.70;;;17.40;99.90;;;;;;5052471;28;20064;-67
2021/05/01 12:38:56;;;;;;;11.32;7.90;;;17.40;99.90;;;;;;5043157;28;20423;-67
2021/05/01 12:41:29;;;;;;;13.25;8.18;;;17.40;99.90;;;;;;5041784;28;20056;-68
2021/05/01 12:43:56;;;;;;;11.20;7.22;;;17.40;99.90;;;;;;5042278;28;20052;-67